Blue Grass Airport
KLEX : now visible

Airfield :











YOU CAN JOIN US ON...

 
LOGIN :

Register | Disclaimer

   EN    FR    IT 

 









Legend :    VFR   Marginal VFR   IFR   Intensive IFR   Very Intensive IFR
Visi :
Ceiling :
>= 8 km
>= 3000ft
5 to 8 km
1000 to 3000 ft
1500m to 5 km
500 to 1000 ft
800 to 1500m
200 to 500 ft
< 800m
< 200 ft
Symbols :   Thunderstorms  Fog  Heavy snow  Heavy precipitations  Wind > 20 kt






- Airport Elevation : 979 ft
- IATA code : LEX


KLEX - Blue Grass

CURRENT METAR :
  • 260354Z 14003KT 10SM CLR 22/18 A3007 RMK AO2 SLP171 T02170183

EXPIRED METARs :
  • 260254Z 15004KT 10SM CLR 23/19 A3007 RMK AO2 SLP173 T02280189 51009
  • 260154Z 12005KT 10SM CLR 23/19 A3007 RMK AO2 SLP172 T02280189

TAF KLEX
Valid from the 26 at 00:00 until the 27 at 00:00 UTC


252331Z 2600/2624 14005KT P6SM BKN120
FM260200 14005KT P6SM SCT200
FM261500 19006KT P6SM SCT035
PROB30 2619/2624 10005KT 3SM -TSRA BKN035CB
KZID FIR / North America



MET'MAP, your aeronautical weather chart ! - Copyright ORBIFLY December 2007 - Disclaimer

ORBIFLY MET'MAP TEAM :

Programming & Development : Alexandra Zaïnal
Concept & original design : Baudouin d'Aumeries
Assistance for programming : Marc-Olivier Méhu
Technical & hardware support : Manuel Goepfert

Contact : metmap@orbifly.com




SOURCES & CREDITS :

   NOAA       Earth
Advisory